Time;durP1;ratioP1;P1;durP2;ratioP2;P2;SDS_P1;SDS_P2;PMS_P1;PMS_P2;Temp;Humidity;BMP_temperature;BMP_pressure;BME280_temperature;BME280_humidity;BME280_pressure;Samples;Min_cycle;Max_cycle;Signal;HPM_P1;HPM_P2
2022/06/24 00:00:14;;;;;;;11.30;8.90;;;;;;;16.20;79.95;98868.14;105248;1271;76161;-72
2022/06/24 00:03:01;;;;;;;10.70;8.90;;;;;;;16.14;80.41;98871.59;105236;1271;70748;-73
2022/06/24 00:05:29;;;;;;;9.50;8.50;;;;;;;16.10;81.06;98869.17;105247;1271;73394;-72
2022/06/24 00:07:57;;;;;;;10.70;8.70;;;;;;;16.05;81.54;98872.27;105242;1271;61339;-72
2022/06/24 00:10:29;;;;;;;12.50;8.90;;;;;;;16.02;82.32;98870.16;105271;1271;61285;-70
2022/06/24 00:12:56;;;;;;;10.20;9.10;;;;;;;16.01;82.75;98866.12;105089;1271;76517;-71
2022/06/24 00:15:34;;;;;;;12.20;9.40;;;;;;;15.98;82.83;98862.90;105225;1271;69628;-71
2022/06/24 00:18:16;;;;;;;11.80;10.00;;;;;;;15.96;83.45;98863.38;105234;1271;73591;-71
2022/06/24 00:20:44;;;;;;;13.40;9.40;;;;;;;15.96;83.99;98865.52;105256;1271;61669;-71
2022/06/24 00:23:15;;;;;;;10.90;9.20;;;;;;;15.96;84.37;98867.14;105534;1271;62060;-71
2022/06/24 00:25:43;;;;;;;13.10;9.80;;;;;;;15.97;84.95;98874.61;105233;1269;75154;-72
2022/06/24 00:28:11;;;;;;;11.60;9.60;;;;;;;15.95;85.13;98871.55;105321;1271;68804;-71
2022/06/24 00:30:44;;;;;;;10.80;9.60;;;;;;;15.94;85.21;98875.29;105276;1271;73130;-71
2022/06/24 00:33:15;;;;;;;12.30;8.90;;;;;;;15.91;85.99;98874.23;105247;1271;61280;-71
2022/06/24 00:35:47;;;;;;;13.00;9.50;;;;;;;15.88;85.70;98872.21;105297;1270;61830;-71
2022/06/24 00:38:33;;;;;;;10.60;9.60;;;;;;;15.84;85.95;98875.33;105089;1271;73874;-71
2022/06/24 00:41:03;;;;;;;14.80;9.60;;;;;;;15.80;86.39;98871.48;104995;1271;67552;-71
2022/06/24 00:43:35;;;;;;;13.60;10.00;;;;;;;15.77;86.67;98873.00;105283;1271;73303;-71
2022/06/24 00:46:24;;;;;;;11.90;10.60;;;;;;;15.75;87.46;98875.87;105248;1271;61246;-72
2022/06/24 00:48:56;;;;;;;12.70;10.70;;;;;;;15.72;87.52;98871.33;105261;1271;61182;-72
2022/06/24 00:51:30;;;;;;;10.90;9.70;;;;;;;15.69;87.75;98869.23;105263;1271;76285;-71
2022/06/24 00:53:58;;;;;;;11.90;10.60;;;;;;;15.65;88.24;98865.45;105253;1270;69857;-73
2022/06/24 00:56:26;;;;;;;14.20;10.40;;;;;;;15.64;88.37;98862.70;105366;1271;73117;-72
2022/06/24 00:58:57;;;;;;;12.20;10.90;;;;;;;15.63;88.76;98865.70;105256;1271;61186;-72
2022/06/24 01:01:35;;;;;;;13.30;10.70;;;;;;;15.59;88.57;98858.87;105234;1271;62235;-74
2022/06/24 01:04:04;;;;;;;11.90;10.60;;;;;;;15.56;88.90;98858.20;105260;1271;74616;-72
2022/06/24 01:06:31;;;;;;;12.50;11.10;;;;;;;15.52;89.00;98860.73;105346;1271;69502;-72
2022/06/24 01:08:58;;;;;;;12.50;10.40;;;;;;;15.48;89.33;98861.05;105253;1271;73323;-73
2022/06/24 01:11:27;;;;;;;12.40;11.00;;;;;;;15.46;89.84;98861.29;105188;1270;61368;-73
2022/06/24 01:13:55;;;;;;;14.60;10.90;;;;;;;15.44;89.92;98861.85;105324;1271;61320;-73
2022/06/24 01:16:23;;;;;;;12.90;10.70;;;;;;;15.41;89.93;98861.23;105258;1271;75367;-73
2022/06/24 01:18:51;;;;;;;10.80;9.60;;;;;;;15.36;89.91;98858.38;105224;1271;70335;-72
2022/06/24 01:21:31;;;;;;;11.40;10.20;;;;;;;15.30;90.25;98856.77;105015;1272;74123;-71
2022/06/24 01:24:09;;;;;;;13.30;10.50;;;;;;;15.23;90.34;98853.12;105220;1271;61388;-71
2022/06/24 01:26:39;;;;;;;12.60;10.80;;;;;;;15.17;90.75;98847.72;105242;1271;61881;-72
2022/06/24 01:29:06;;;;;;;11.50;10.30;;;;;;;15.14;91.02;98845.25;105245;1271;75159;-72
2022/06/24 01:31:33;;;;;;;11.30;9.50;;;;;;;15.13;90.97;98841.99;105248;1271;70171;-70
2022/06/24 01:34:00;;;;;;;11.60;10.10;;;;;;;15.10;91.33;98836.52;105165;1274;72167;-71
2022/06/24 01:36:26;;;;;;;12.90;11.20;;;;;;;15.09;91.73;98833.93;105265;1271;61527;-71
2022/06/24 01:38:53;;;;;;;12.40;10.20;;;;;;;15.08;91.67;98830.27;105281;1271;61934;-71
2022/06/24 01:41:20;;;;;;;11.30;9.00;;;;;;;15.06;91.80;98833.14;105240;1271;74932;-70
2022/06/24 01:43:46;;;;;;;12.20;9.80;;;;;;;15.02;91.72;98830.58;105261;1271;68325;-71
2022/06/24 01:46:13;;;;;;;13.10;9.60;;;;;;;15.00;91.99;98832.98;105267;1271;72919;-71
2022/06/24 01:48:40;;;;;;;11.80;9.80;;;;;;;14.95;92.20;98834.42;105221;1271;61236;-71
2022/06/24 01:51:09;;;;;;;11.10;9.40;;;;;;;14.93;92.43;98837.14;105234;1271;61805;-71
2022/06/24 01:53:36;;;;;;;11.30;9.20;;;;;;;14.91;92.65;98834.92;105241;1271;76157;-71
2022/06/24 01:56:03;;;;;;;12.60;9.30;;;;;;;14.89;92.56;98828.68;105243;1271;69198;-71
2022/06/24 01:58:29;;;;;;;11.70;9.30;;;;;;;14.86;92.76;98830.01;105273;1270;74478;-72
2022/06/24 02:00:56;;;;;;;9.90;9.00;;;;;;;14.85;92.66;98831.54;105242;1271;61240;-71
2022/06/24 02:03:23;;;;;;;10.00;9.00;;;;;;;14.84;92.56;98831.10;105284;1271;61273;-71
2022/06/24 02:05:51;;;;;;;10.20;9.10;;;;;;;14.82;92.90;98829.45;105239;1271;76046;-71
2022/06/24 02:08:18;;;;;;;9.90;8.60;;;;;;;14.82;92.94;98827.71;105225;1271;70621;-72
2022/06/24 02:13:30;;;;;;;11.30;8.50;;;;;;;14.76;93.12;98830.08;105241;1271;61300;-71
2022/06/24 02:15:58;;;;;;;11.00;9.40;;;;;;;14.74;93.22;98827.18;105263;1271;61297;-71
2022/06/24 02:18:26;;;;;;;11.40;7.90;;;;;;;14.72;93.27;98825.33;105122;1272;75399;-72
2022/06/24 02:20:53;;;;;;;10.90;8.70;;;;;;;14.70;93.18;98826.24;105255;1271;70267;-71
2022/06/24 02:23:20;;;;;;;9.00;8.10;;;;;;;14.68;93.23;98823.21;105266;1271;73412;-71
2022/06/24 02:25:48;;;;;;;10.70;9.60;;;;;;;14.64;93.20;98823.02;105222;1271;61400;-71
2022/06/24 02:28:15;;;;;;;11.80;8.50;;;;;;;14.62;93.34;98822.13;105081;1271;62027;-70
2022/06/24 02:30:42;;;;;;;12.30;8.80;;;;;;;14.60;93.71;98821.62;105249;1271;75167;-71
2022/06/24 02:33:09;;;;;;;9.80;8.80;;;;;;;14.59;93.77;98821.70;105234;1271;69685;-71
2022/06/24 02:35:37;;;;;;;11.50;9.40;;;;;;;14.58;93.77;98819.08;105246;1271;74377;-71
2022/06/24 02:38:04;;;;;;;9.60;8.60;;;;;;;14.58;94.15;98814.75;105070;1271;61735;-71
2022/06/24 02:40:47;;;;;;;12.00;8.60;;;;;;;14.58;94.15;98820.66;105369;1271;62693;-71
2022/06/24 02:43:17;;;;;;;9.70;8.70;;;;;;;14.58;94.04;98820.83;105064;1271;76646;-71
2022/06/24 02:45:48;;;;;;;10.80;9.30;;;;;;;14.57;94.22;98820.06;105234;1271;68222;-71
2022/06/24 02:48:16;;;;;;;12.00;9.50;;;;;;;14.57;93.99;98820.45;105259;1271;73426;-71
2022/06/24 02:50:45;;;;;;;10.90;9.60;;;;;;;14.55;94.10;98821.29;105241;1271;61275;-71
2022/06/24 02:53:14;;;;;;;11.60;9.30;;;;;;;14.55;94.05;98821.62;105172;1271;62085;-71
2022/06/24 02:55:43;;;;;;;12.90;9.60;;;;;;;14.56;93.95;98827.52;105303;1271;75706;-72
2022/06/24 02:58:10;;;;;;;10.70;8.80;;;;;;;14.55;94.13;98827.95;105348;1271;69197;-70
2022/06/24 03:00:39;;;;;;;11.90;8.60;;;;;;;14.54;94.36;98835.33;105281;1269;71452;-71
2022/06/24 03:03:09;;;;;;;11.80;9.70;;;;;;;14.55;94.39;98835.21;105338;1271;61322;-71
2022/06/24 03:05:36;;;;;;;14.00;10.70;;;;;;;14.57;94.42;98840.30;105248;1271;61380;-72
2022/06/24 03:08:04;;;;;;;13.70;10.20;;;;;;;14.58;94.54;98844.30;104943;1271;456661;-73
2022/06/24 03:10:32;;;;;;;12.50;10.90;;;;;;;14.62;94.64;98844.67;105433;1271;69450;-73
2022/06/24 03:12:59;;;;;;;12.50;9.80;;;;;;;14.64;94.48;98847.16;105226;1271;74203;-72
2022/06/24 03:15:25;;;;;;;11.90;9.60;;;;;;;14.66;94.49;98842.33;105265;1271;61308;-72
2022/06/24 03:17:52;;;;;;;9.80;8.80;;;;;;;14.70;94.71;98832.83;105008;1270;61147;-72
2022/06/24 03:20:18;;;;;;;10.00;9.00;;;;;;;14.75;94.41;98834.75;105252;1271;61413;-72
2022/06/24 03:22:45;;;;;;;13.30;9.60;;;;;;;14.79;94.45;98829.92;105253;1271;61367;-72
2022/06/24 03:25:12;;;;;;;12.60;9.70;;;;;;;14.84;94.40;98828.27;105195;1271;73193;-72
2022/06/24 03:27:39;;;;;;;12.40;8.80;;;;;;;14.88;94.06;98825.54;105281;1271;61516;-72
2022/06/24 03:30:08;;;;;;;11.00;9.30;;;;;;;15.01;93.94;98829.80;105262;1270;61804;-72
2022/06/24 03:32:35;;;;;;;9.80;8.80;;;;;;;16.15;92.06;98829.18;105271;1271;75058;-72
2022/06/24 03:35:03;;;;;;;8.90;8.00;;;;;;;17.65;88.00;98825.50;105239;1271;68271;-71
2022/06/24 03:37:31;;;;;;;10.60;7.50;;;;;;;18.77;84.08;98821.38;105297;1271;71590;-71
2022/06/24 03:39:58;;;;;;;9.90;8.00;;;;;;;19.65;81.00;98819.67;105229;1271;61319;-71
2022/06/24 03:42:25;;;;;;;10.60;7.60;;;;;;;20.51;78.08;98815.94;105276;1271;61265;-72
2022/06/24 03:44:52;;;;;;;9.10;8.10;;;;;;;21.24;74.88;98811.14;105221;1271;75162;-72
2022/06/24 03:47:19;;;;;;;8.40;7.60;;;;;;;21.87;72.44;98815.83;105262;1271;69902;-72
2022/06/24 03:49:45;;;;;;;10.50;8.30;;;;;;;22.54;69.77;98813.04;105258;1271;73882;-72
2022/06/24 03:52:12;;;;;;;10.40;8.30;;;;;;;23.09;67.37;98817.77;105259;1271;61241;-71
2022/06/24 03:54:39;;;;;;;11.50;8.10;;;;;;;23.62;65.04;98813.40;105230;1269;61764;-71
2022/06/24 03:57:05;;;;;;;8.10;7.40;;;;;;;24.12;62.36;98813.09;105240;1271;61268;-72
2022/06/24 03:59:32;;;;;;;10.10;7.20;;;;;;;24.60;61.23;98809.98;105021;1272;70313;-72
2022/06/24 04:01:58;;;;;;;8.30;7.40;;;;;;;25.11;59.28;98807.75;105264;1271;61377;-72
2022/06/24 04:04:25;;;;;;;8.50;7.50;;;;;;;25.54;57.47;98806.98;105257;1270;61281;-72
2022/06/24 04:06:52;;;;;;;10.30;7.70;;;;;;;25.93;55.06;98811.12;105255;1271;61446;-74
2022/06/24 04:09:19;;;;;;;8.00;6.40;;;;;;;26.15;53.74;98814.42;105227;1271;74133;-72
2022/06/24 04:11:45;;;;;;;7.70;6.70;;;;;;;26.38;52.73;98816.67;105263;1271;68425;-71
2022/06/24 04:14:12;;;;;;;8.70;7.20;;;;;;;26.71;52.42;98813.30;105287;1271;61428;-72
2022/06/24 04:16:38;;;;;;;8.70;7.30;;;;;;;27.14;49.99;98813.93;105237;1271;61295;-71
2022/06/24 04:19:06;;;;;;;9.60;6.50;;;;;;;27.02;48.81;98818.48;105287;1271;62168;-71
2022/06/24 04:21:32;;;;;;;6.90;6.30;;;;;;;26.98;49.14;98821.22;105272;1271;75309;-72
2022/06/24 04:23:59;;;;;;;7.70;6.70;;;;;;;27.23;49.01;98823.08;105082;1271;61377;-71
2022/06/24 04:26:25;;;;;;;7.10;6.40;;;;;;;27.43;47.38;98818.48;105239;1270;61393;-71
2022/06/24 04:28:52;;;;;;;9.10;7.20;;;;;;;27.63;46.85;98820.93;105030;1274;61320;-71
2022/06/24 04:31:18;;;;;;;7.70;6.80;;;;;;;27.72;46.33;98821.44;105207;1271;61185;-72
2022/06/24 04:33:46;;;;;;;7.10;6.50;;;;;;;27.63;45.82;98820.23;105225;1271;75619;-72
2022/06/24 04:36:14;;;;;;;7.30;6.60;;;;;;;27.79;45.31;98819.11;105000;1272;61458;-72
2022/06/24 04:38:42;;;;;;;7.40;6.00;;;;;;;27.99;44.82;98814.08;105254;1271;73594;-71
2022/06/24 04:41:19;;;;;;;7.10;6.50;;;;;;;28.26;44.43;98815.59;105424;1271;61293;-72
2022/06/24 04:43:45;;;;;;;7.10;6.40;;;;;;;28.56;43.89;98814.47;105243;1271;61759;-73
2022/06/24 04:46:12;;;;;;;7.90;6.00;;;;;;;28.81;43.51;98810.88;105016;1272;61354;-73
2022/06/24 04:48:38;;;;;;;6.40;5.80;;;;;;;29.04;42.77;98812.52;105281;1271;61186;-72
2022/06/24 04:51:11;;;;;;;7.00;6.30;;;;;;;29.16;42.33;98809.16;105235;1269;73344;-72
2022/06/24 04:53:38;;;;;;;9.60;6.60;;;;;;;29.26;41.91;98802.39;105272;1271;61285;-71
2022/06/24 04:56:04;;;;;;;9.80;6.20;;;;;;;29.39;41.73;98806.70;105288;1271;61853;-71
2022/06/24 04:58:31;;;;;;;7.10;6.30;;;;;;;29.59;40.92;98807.23;105257;1271;76603;-73
2022/06/24 05:00:59;;;;;;;7.00;6.40;;;;;;;29.64;40.21;98808.70;105250;1271;61318;-73
2022/06/24 05:03:25;;;;;;;6.40;5.80;;;;;;;29.60;40.20;98810.61;105025;1272;72626;-73
2022/06/24 05:05:52;;;;;;;6.50;5.50;;;;;;;29.68;40.18;98809.46;105251;1271;62709;-72
2022/06/24 05:08:19;;;;;;;7.00;5.90;;;;;;;29.86;39.94;98812.58;105279;1271;61261;-72
2022/06/24 05:10:45;;;;;;;7.50;6.70;;;;;;;29.96;39.64;98811.96;105380;1271;74620;-73
2022/06/24 05:13:12;;;;;;;9.50;6.00;;;;;;;30.04;39.41;98811.80;105329;1271;61185;-72
2022/06/24 05:15:38;;;;;;;6.80;6.10;;;;;;;30.12;38.67;98808.06;105291;1271;61173;-72
2022/06/24 05:18:05;;;;;;;8.10;5.80;;;;;;;30.13;38.68;98805.72;105015;1273;61502;-71
2022/06/24 05:20:32;;;;;;;7.00;5.90;;;;;;;30.22;38.42;98808.64;105053;1274;61323;-74
2022/06/24 05:22:58;;;;;;;8.00;5.30;;;;;;;30.15;37.70;98810.77;105294;1270;75543;-72
2022/06/24 05:25:25;;;;;;;6.20;5.60;;;;;;;29.90;37.27;98811.91;105308;1274;61280;-72
2022/06/24 05:27:51;;;;;;;6.40;5.70;;;;;;;29.65;37.49;98812.23;105226;1270;61281;-72
2022/06/24 05:30:18;;;;;;;5.60;5.10;;;;;;;29.59;37.60;98811.21;105248;1271;61415;-72
2022/06/24 05:32:45;;;;;;;6.00;5.40;;;;;;;29.59;37.50;98808.88;105275;1271;61378;-72
2022/06/24 05:35:11;;;;;;;10.50;5.40;;;;;;;29.65;37.37;98816.52;105283;1271;76150;-73
2022/06/24 05:37:39;;;;;;;7.00;5.30;;;;;;;29.63;37.31;98812.18;105262;1271;69585;-72
2022/06/24 05:40:07;;;;;;;5.50;5.00;;;;;;;29.72;37.37;98812.45;105365;1271;73072;-72
2022/06/24 05:42:34;;;;;;;5.40;4.90;;;;;;;29.76;36.96;98808.95;105031;1274;61532;-72
2022/06/24 05:45:01;;;;;;;7.70;5.00;;;;;;;29.77;36.97;98811.76;105253;1271;61275;-72
2022/06/24 05:47:28;;;;;;;4.60;3.80;;;;;;;29.90;37.06;98811.36;105273;1271;75312;-72
2022/06/24 05:49:54;;;;;;;5.50;5.00;;;;;;;29.89;36.12;98812.70;105297;1272;70487;-72
2022/06/24 05:55:02;;;;;;;5.10;4.60;;;;;;;29.79;36.24;98811.60;104988;1274;73282;-72
2022/06/24 05:55:08;;;;;;;5.20;4.10;;;;;;;29.80;36.12;98810.48;105275;1272;61415;-72
2022/06/24 05:57:34;;;;;;;5.60;4.50;;;;;;;29.71;36.16;98807.99;105268;1271;61301;-72
2022/06/24 06:00:01;;;;;;;6.00;4.40;;;;;;;29.57;36.07;98811.39;105243;1271;61210;-72
2022/06/24 06:02:27;;;;;;;5.10;4.50;;;;;;;29.48;36.26;98809.69;105289;1271;69317;-72
2022/06/24 06:04:54;;;;;;;6.50;4.20;;;;;;;29.45;36.10;98806.64;105245;1271;61192;-72
2022/06/24 06:07:20;;;;;;;5.00;4.40;;;;;;;29.43;36.20;98807.89;105232;1271;61371;-72
2022/06/24 06:09:47;;;;;;;4.70;4.20;;;;;;;29.43;36.32;98808.02;104989;1274;61380;-72
2022/06/24 06:12:14;;;;;;;5.60;3.90;;;;;;;29.54;36.20;98808.56;105216;1271;76415;-72
2022/06/24 06:14:41;;;;;;;9.90;4.50;;;;;;;29.63;36.42;98808.04;105209;1271;68943;-72
2022/06/24 06:17:07;;;;;;;5.30;4.80;;;;;;;29.80;36.61;98810.20;105260;1271;73046;-71
2022/06/24 06:19:34;;;;;;;6.70;4.70;;;;;;;29.93;35.74;98809.25;105259;1271;61288;-71
2022/06/24 06:22:02;;;;;;;6.60;5.00;;;;;;;29.80;35.98;98815.36;105242;1270;61218;-73
2022/06/24 06:24:30;;;;;;;5.50;4.40;;;;;;;29.80;36.19;98820.05;105266;1271;75282;-73
2022/06/24 06:26:57;;;;;;;6.30;5.10;;;;;;;29.74;35.76;98816.96;105292;1271;69762;-73
2022/06/24 06:29:24;;;;;;;6.60;4.40;;;;;;;29.65;36.00;98819.26;105249;1271;72043;-73
2022/06/24 06:31:51;;;;;;;4.50;3.80;;;;;;;29.56;35.89;98818.50;105227;1271;61363;-73
2022/06/24 06:34:19;;;;;;;5.30;4.70;;;;;;;29.45;35.95;98823.84;105274;1271;61291;-73
2022/06/24 06:36:46;;;;;;;8.90;4.80;;;;;;;29.36;36.12;98823.77;105420;1271;74149;-73
2022/06/24 06:39:13;;;;;;;5.20;4.60;;;;;;;29.21;36.01;98825.86;105254;1271;69320;-72
2022/06/24 06:41:40;;;;;;;5.70;5.10;;;;;;;29.09;36.51;98829.15;105256;1271;74180;-72
2022/06/24 06:44:06;;;;;;;6.50;5.30;;;;;;;28.95;36.42;98828.09;105270;1271;61273;-72
2022/06/24 06:46:33;;;;;;;5.30;4.80;;;;;;;28.76;36.71;98826.73;105263;1271;61176;-73
2022/06/24 06:48:59;;;;;;;5.90;4.70;;;;;;;28.56;36.80;98826.95;105259;1271;61272;-73
2022/06/24 06:51:26;;;;;;;4.70;4.30;;;;;;;28.36;37.43;98823.11;105047;1271;61373;-73
2022/06/24 06:53:52;;;;;;;5.40;4.50;;;;;;;28.40;38.12;98825.23;105222;1271;61293;-72
2022/06/24 06:56:19;;;;;;;6.30;4.70;;;;;;;28.51;38.11;98824.55;105234;1272;61323;-73
2022/06/24 06:58:45;;;;;;;6.50;5.10;;;;;;;28.56;38.13;98827.05;105261;1271;61281;-72
2022/06/24 07:01:12;;;;;;;5.80;4.40;;;;;;;28.68;38.28;98818.71;105289;1271;61384;-72
2022/06/24 07:03:38;;;;;;;4.90;4.40;;;;;;;28.81;38.38;98816.63;105239;1271;61188;-72
2022/06/24 07:06:05;;;;;;;4.30;3.70;;;;;;;28.74;37.09;98821.70;105102;1271;61226;-72
2022/06/24 07:08:32;;;;;;;4.50;3.80;;;;;;;28.33;37.38;98818.20;105240;1271;61322;-72
2022/06/24 07:10:59;;;;;;;5.50;4.50;;;;;;;28.25;37.75;98818.50;105256;1271;61973;-73
2022/06/24 07:13:25;;;;;;;5.30;4.10;;;;;;;28.24;38.12;98814.96;105245;1271;75902;-72
2022/06/24 07:15:52;;;;;;;4.80;4.10;;;;;;;28.24;37.86;98817.12;105252;1271;70159;-72
2022/06/24 07:18:18;;;;;;;4.40;3.70;;;;;;;28.13;38.09;98812.61;105247;1271;73350;-72
2022/06/24 07:20:45;;;;;;;4.80;4.30;;;;;;;28.17;38.51;98812.96;105261;1271;61426;-72
2022/06/24 07:23:12;;;;;;;5.00;3.60;;;;;;;28.33;38.70;98812.80;105262;1271;61906;-70
2022/06/24 07:25:38;;;;;;;4.60;3.50;;;;;;;28.49;38.30;98813.14;105279;1271;75097;-73
2022/06/24 07:28:05;;;;;;;5.50;3.90;;;;;;;28.41;37.97;98812.72;104996;1271;69118;-72
2022/06/24 07:30:32;;;;;;;6.60;3.70;;;;;;;28.16;37.89;98808.06;105242;1271;72191;-71
2022/06/24 07:32:58;;;;;;;3.90;3.60;;;;;;;27.84;37.98;98809.64;105250;1271;61369;-73
2022/06/24 07:35:26;;;;;;;4.50;3.40;;;;;;;27.51;39.02;98808.02;105227;1271;61586;-73
2022/06/24 07:37:52;;;;;;;4.20;3.30;;;;;;;27.23;39.62;98805.23;105434;1270;74773;-73
2022/06/24 07:40:19;;;;;;;3.70;3.40;;;;;;;26.95;39.98;98800.14;105013;1272;68646;-73
2022/06/24 07:42:46;;;;;;;4.60;4.10;;;;;;;26.73;40.57;98797.77;104988;1274;73305;-73
2022/06/24 07:45:13;;;;;;;5.90;3.80;;;;;;;26.56;41.00;98795.00;105204;1271;61295;-73
2022/06/24 07:47:40;;;;;;;4.20;3.30;;;;;;;26.46;41.07;98797.07;105241;1271;62005;-72
2022/06/24 07:50:07;;;;;;;3.50;3.20;;;;;;;26.29;40.68;98793.36;105461;1269;74605;-72
2022/06/24 07:52:33;;;;;;;4.80;3.50;;;;;;;26.06;40.84;98792.30;105253;1271;70076;-72
2022/06/24 07:57:45;;;;;;;4.30;2.80;;;;;;;25.62;41.83;98790.68;105231;1271;61181;-72
2022/06/24 08:00:12;;;;;;;3.10;2.80;;;;;;;25.62;41.90;98785.52;105271;1271;61351;-73
2022/06/24 08:02:38;;;;;;;3.40;3.10;;;;;;;25.63;41.76;98782.16;105286;1270;76366;-73
2022/06/24 08:05:05;;;;;;;4.10;3.20;;;;;;;25.60;42.10;98781.10;105023;1271;61451;-73
2022/06/24 08:07:32;;;;;;;5.60;3.10;;;;;;;25.64;42.68;98777.66;105229;1271;73437;-73
2022/06/24 08:09:59;;;;;;;7.40;2.80;;;;;;;25.79;42.47;98778.26;105199;1271;61291;-73
2022/06/24 08:12:25;;;;;;;4.70;3.00;;;;;;;25.81;42.60;98773.89;105218;1271;61178;-73
2022/06/24 08:14:52;;;;;;;4.70;2.90;;;;;;;25.84;41.84;98774.48;105223;1271;61276;-71
2022/06/24 08:17:18;;;;;;;3.50;2.90;;;;;;;25.86;42.35;98770.95;105212;1271;61268;-71
2022/06/24 08:19:45;;;;;;;5.30;2.80;;;;;;;25.98;42.67;98768.42;105232;1271;73428;-73
2022/06/24 08:22:11;;;;;;;3.20;2.80;;;;;;;26.01;41.52;98767.74;105200;1271;61233;-73
2022/06/24 08:24:38;;;;;;;6.70;3.20;;;;;;;26.05;41.82;98764.23;105256;1268;61281;-73
2022/06/24 08:27:05;;;;;;;5.80;4.00;;;;;;;26.14;42.58;98758.64;105288;1270;75280;-73
2022/06/24 08:29:31;;;;;;;5.40;3.10;;;;;;;26.29;41.89;98759.48;105221;1271;70341;-73
2022/06/24 08:31:58;;;;;;;3.70;3.00;;;;;;;26.19;41.30;98759.10;105013;1269;61320;-73
2022/06/24 08:34:24;;;;;;;3.20;2.90;;;;;;;26.12;41.95;98756.45;105193;1271;61256;-73
2022/06/24 08:36:51;;;;;;;3.90;3.00;;;;;;;26.28;42.44;98756.89;104995;1272;61135;-73
2022/06/24 08:39:17;;;;;;;3.10;2.80;;;;;;;26.41;41.74;98754.70;105269;1271;75414;-72
2022/06/24 08:41:47;;;;;;;4.70;3.10;;;;;;;26.46;42.02;98753.86;105239;1271;70230;-74
2022/06/24 08:44:13;;;;;;;3.80;3.00;;;;;;;26.55;41.76;98756.45;105284;1271;73414;-73
2022/06/24 08:46:40;;;;;;;3.80;3.40;;;;;;;26.70;42.09;98751.05;105246;1271;61353;-72
2022/06/24 08:49:07;;;;;;;4.10;2.80;;;;;;;26.86;41.75;98749.13;105221;1271;61878;-73
2022/06/24 08:51:34;;;;;;;4.30;2.80;;;;;;;26.90;40.57;98742.17;105376;1271;75178;-72
2022/06/24 08:54:02;;;;;;;3.70;2.60;;;;;;;26.87;40.37;98742.77;105287;1271;69587;-72
2022/06/24 08:56:29;;;;;;;2.70;2.50;;;;;;;26.84;39.70;98735.17;105229;1271;74432;-72
2022/06/24 08:58:58;;;;;;;3.40;2.50;;;;;;;26.88;40.06;98734.17;105212;1271;61368;-73
2022/06/24 09:01:25;;;;;;;3.10;2.70;;;;;;;26.97;39.49;98736.05;105268;1271;61271;-73
2022/06/24 09:03:51;;;;;;;5.00;2.40;;;;;;;27.09;40.31;98736.45;105241;1271;61385;-73
2022/06/24 09:06:18;;;;;;;2.60;2.30;;;;;;;27.26;39.19;98735.31;105256;1271;61363;-73
2022/06/24 09:08:50;;;;;;;2.60;2.30;;;;;;;27.30;38.88;98737.61;105277;1270;74167;-72
2022/06/24 09:11:17;;;;;;;2.70;2.40;;;;;;;27.35;38.19;98737.09;105461;1270;61310;-73
2022/06/24 09:13:49;;;;;;;2.50;2.30;;;;;;;27.34;38.14;98732.71;105355;1270;61362;-72
2022/06/24 09:16:18;;;;;;;3.10;2.40;;;;;;;27.40;37.93;98727.25;105317;1271;75677;-73
2022/06/24 09:18:57;;;;;;;2.80;2.20;;;;;;;27.46;37.83;98729.58;105263;1271;68684;-73
2022/06/24 09:21:25;;;;;;;;;;;;;;;27.47;37.54;98728.69;105514;1271;74253;-73
2022/06/24 09:23:57;;;;;;;2.40;2.00;;;;;;;27.50;37.58;98726.06;105424;1269;61515;-72
2022/06/24 09:26:42;;;;;;;5.20;2.40;;;;;;;27.56;37.53;98727.49;105366;1271;61291;-72
2022/06/24 09:29:14;;;;;;;2.70;2.50;;;;;;;27.59;36.68;98720.16;105199;1271;76731;-72
2022/06/24 09:31:41;;;;;;;2.20;2.10;;;;;;;27.50;36.97;98714.23;105292;1271;69390;-72
2022/06/24 09:34:15;;;;;;;3.10;2.50;;;;;;;27.58;37.66;98716.66;105250;1271;73434;-72
2022/06/24 09:36:45;;;;;;;2.50;1.90;;;;;;;27.75;37.41;98720.39;105265;1271;61340;-72
2022/06/24 09:39:14;;;;;;;3.90;2.40;;;;;;;27.83;37.22;98712.84;105367;1271;61926;-72
2022/06/24 09:41:46;;;;;;;2.50;2.30;;;;;;;27.87;37.02;98718.03;105434;1271;75115;-72
2022/06/24 09:44:14;;;;;;;2.30;2.10;;;;;;;27.93;36.96;98716.44;105295;1271;69057;-72
2022/06/24 09:46:42;;;;;;;2.40;2.30;;;;;;;27.92;36.60;98715.26;105005;1272;73350;-72
2022/06/24 09:49:12;;;;;;;3.10;2.30;;;;;;;27.93;36.89;98715.38;105259;1271;61297;-72
2022/06/24 09:51:40;;;;;;;4.00;2.30;;;;;;;27.98;36.41;98713.10;105257;1271;61214;-73
2022/06/24 09:54:07;;;;;;;2.80;2.50;;;;;;;28.06;36.96;98710.81;105272;1271;75850;-72
2022/06/24 09:56:35;;;;;;;4.50;2.80;;;;;;;28.18;36.80;98716.71;105219;1271;69294;-72
2022/06/24 10:01:48;;;;;;;3.70;2.10;;;;;;;28.37;36.32;98709.88;105233;1269;61397;-75
2022/06/24 10:04:20;;;;;;;2.10;2.00;;;;;;;28.37;35.78;98712.08;105254;1271;62249;-73
2022/06/24 10:06:48;;;;;;;2.50;2.20;;;;;;;28.27;35.53;98711.40;105260;1271;74324;-72
2022/06/24 10:09:24;;;;;;;2.40;2.20;;;;;;;28.27;35.58;98705.38;105204;1271;70507;-73
2022/06/24 10:11:53;;;;;;;2.40;2.20;;;;;;;28.35;35.94;98697.91;105337;1271;71521;-73
2022/06/24 10:14:20;;;;;;;;;;;;;;;28.50;36.26;98698.36;105255;1270;61245;-73
2022/06/24 10:16:49;;;;;;;3.50;2.40;;;;;;;28.59;35.75;98701.05;105264;1271;61278;-73
2022/06/24 10:19:19;;;;;;;3.10;2.10;;;;;;;28.60;35.61;98692.39;105277;1270;74882;-72
2022/06/24 10:21:48;;;;;;;2.20;2.10;;;;;;;28.68;35.67;98695.87;105193;1271;67710;-73
2022/06/24 10:24:16;;;;;;;2.20;2.10;;;;;;;28.79;35.34;98696.92;105245;1271;74169;-73
2022/06/24 10:26:50;;;;;;;4.40;2.30;;;;;;;28.77;34.73;98693.35;105251;1271;61275;-73
2022/06/24 10:29:19;;;;;;;3.00;2.10;;;;;;;28.70;34.75;98690.86;105254;1271;61394;-73
2022/06/24 10:31:49;;;;;;;2.50;1.80;;;;;;;28.75;35.47;98686.33;105290;1271;75166;-73
2022/06/24 10:34:22;;;;;;;2.20;2.00;;;;;;;28.89;35.38;98687.73;105271;1271;70378;-73
2022/06/24 10:36:50;;;;;;;2.40;2.10;;;;;;;28.99;34.67;98686.42;105224;1270;73432;-73
2022/06/24 10:39:21;;;;;;;2.70;2.50;;;;;;;28.96;34.34;98681.73;105434;1271;61338;-72
2022/06/24 10:41:58;;;;;;;3.10;2.20;;;;;;;28.87;33.78;98680.08;105243;1271;61460;-73
2022/06/24 10:44:27;;;;;;;2.20;1.90;;;;;;;28.77;33.72;98674.91;105263;1270;75178;-72
2022/06/24 10:47:12;;;;;;;3.90;2.60;;;;;;;28.72;33.45;98670.45;105266;1271;69356;-72
2022/06/24 10:49:51;;;;;;;2.30;2.10;;;;;;;28.70;33.42;98662.14;105224;1271;74561;-72
2022/06/24 10:52:33;;;;;;;2.20;2.00;;;;;;;28.77;33.92;98661.29;105209;1271;61335;-73
2022/06/24 10:55:15;;;;;;;2.70;2.00;;;;;;;28.84;33.67;98662.67;105245;1271;61412;-72
2022/06/24 10:57:45;;;;;;;3.40;2.30;;;;;;;28.85;33.42;98656.34;105272;1271;74828;-72
2022/06/24 11:00:22;;;;;;;2.70;1.80;;;;;;;28.86;33.29;98657.12;105245;1271;68010;-72
2022/06/24 11:02:57;;;;;;;2.00;1.70;;;;;;;28.94;33.97;98653.44;105283;1271;74234;-72
2022/06/24 11:05:30;;;;;;;2.80;2.10;;;;;;;29.13;33.99;98651.71;105230;1271;61274;-72
2022/06/24 11:07:57;;;;;;;5.70;2.80;;;;;;;29.15;33.11;98644.60;105291;1271;61140;-72
2022/06/24 11:10:29;;;;;;;2.50;2.10;;;;;;;29.08;33.40;98640.67;105275;1271;61342;-73
2022/06/24 11:12:58;;;;;;;3.20;2.10;;;;;;;29.10;33.21;98638.80;105381;1270;69907;-72
2022/06/24 11:15:36;;;;;;;2.50;2.10;;;;;;;29.09;33.59;98633.23;105266;1271;73393;-72
2022/06/24 11:18:14;;;;;;;2.90;2.00;;;;;;;29.21;33.62;98633.91;105257;1271;61361;-72
2022/06/24 11:20:49;;;;;;;2.10;2.00;;;;;;;29.12;32.74;98630.83;105242;1271;61355;-72
2022/06/24 11:23:17;;;;;;;2.40;2.00;;;;;;;29.06;33.02;98626.86;105251;1271;75219;-72
2022/06/24 11:25:55;;;;;;;4.10;2.20;;;;;;;29.08;32.90;98627.63;105244;1271;67304;-73
2022/06/24 11:28:27;;;;;;;2.50;2.30;;;;;;;29.11;32.85;98620.88;105280;1271;73708;-73
2022/06/24 11:30:57;;;;;;;4.80;2.50;;;;;;;29.09;32.62;98617.15;105207;1269;61281;-72
2022/06/24 11:33:23;;;;;;;4.10;2.20;;;;;;;29.06;32.71;98616.98;105253;1271;61578;-72
2022/06/24 11:35:51;;;;;;;3.60;2.30;;;;;;;29.01;32.45;98614.65;105208;1271;75249;-72